sensor_id;sensor_type;location;lat;lon;timestamp;pressure;altitude;pressure_sealevel;temperature;humidity
11349;BME280;5729;43.570;27.826;2023-04-05T00:02:09;98455.84;;;2.12;100.00
11349;BME280;5729;43.570;27.826;2023-04-05T00:04:38;98423.19;;;1.94;100.00
11349;BME280;5729;43.570;27.826;2023-04-05T00:07:15;98454.59;;;2.09;100.00
11349;BME280;5729;43.570;27.826;2023-04-05T00:09:42;98449.28;;;2.09;100.00
11349;BME280;5729;43.570;27.826;2023-04-05T00:12:07;98442.56;;;2.03;100.00
11349;BME280;5729;43.570;27.826;2023-04-05T00:14:32;98456.47;;;2.09;100.00
11349;BME280;5729;43.570;27.826;2023-04-05T00:16:58;98453.47;;;2.19;100.00
11349;BME280;5729;43.570;27.826;2023-04-05T00:19:23;98446.34;;;2.02;100.00
11349;BME280;5729;43.570;27.826;2023-04-05T00:21:49;98451.44;;;2.16;100.00
11349;BME280;5729;43.570;27.826;2023-04-05T00:24:14;98452.59;;;1.98;100.00
11349;BME280;5729;43.570;27.826;2023-04-05T00:26:40;98449.00;;;2.02;100.00
11349;BME280;5729;43.570;27.826;2023-04-05T00:29:07;98451.81;;;1.97;100.00
11349;BME280;5729;43.570;27.826;2023-04-05T00:31:33;98447.88;;;2.03;100.00
11349;BME280;5729;43.570;27.826;2023-04-05T00:33:58;98436.78;;;2.10;100.00
11349;BME280;5729;43.570;27.826;2023-04-05T00:36:24;98448.50;;;2.09;100.00
11349;BME280;5729;43.570;27.826;2023-04-05T00:38:50;98451.00;;;2.05;100.00
11349;BME280;5729;43.570;27.826;2023-04-05T00:41:15;98428.97;;;1.96;100.00
11349;BME280;5729;43.570;27.826;2023-04-05T00:43:41;98444.31;;;1.99;100.00
11349;BME280;5729;43.570;27.826;2023-04-05T00:46:07;98439.00;;;1.99;100.00
11349;BME280;5729;43.570;27.826;2023-04-05T00:48:34;98450.41;;;1.91;100.00
11349;BME280;5729;43.570;27.826;2023-04-05T00:50:59;98441.78;;;1.94;100.00
11349;BME280;5729;43.570;27.826;2023-04-05T00:53:25;98456.19;;;2.02;100.00
11349;BME280;5729;43.570;27.826;2023-04-05T00:55:54;98456.03;;;1.98;100.00
11349;BME280;5729;43.570;27.826;2023-04-05T00:58:20;98446.63;;;1.92;100.00
11349;BME280;5729;43.570;27.826;2023-04-05T01:01:01;98433.19;;;1.97;100.00
11349;BME280;5729;43.570;27.826;2023-04-05T01:03:31;98447.09;;;1.94;100.00
11349;BME280;5729;43.570;27.826;2023-04-05T01:09:04;98451.50;;;1.90;100.00
11349;BME280;5729;43.570;27.826;2023-04-05T01:11:34;98449.44;;;2.04;100.00
11349;BME280;5729;43.570;27.826;2023-04-05T01:14:02;98408.22;;;1.72;100.00
11349;BME280;5729;43.570;27.826;2023-04-05T01:16:27;98411.84;;;1.68;100.00
11349;BME280;5729;43.570;27.826;2023-04-05T01:18:54;98450.25;;;1.88;100.00
11349;BME280;5729;43.570;27.826;2023-04-05T01:24:26;98446.81;;;1.70;100.00
11349;BME280;5729;43.570;27.826;2023-04-05T01:37:14;98462.28;;;1.76;100.00
11349;BME280;5729;43.570;27.826;2023-04-05T01:39:42;98455.56;;;1.62;100.00
11349;BME280;5729;43.570;27.826;2023-04-05T01:42:09;98466.97;;;1.62;100.00
11349;BME280;5729;43.570;27.826;2023-04-05T01:44:34;98471.34;;;1.67;100.00
11349;BME280;5729;43.570;27.826;2023-04-05T01:47:00;98474.78;;;1.50;100.00
11349;BME280;5729;43.570;27.826;2023-04-05T01:49:25;98471.66;;;1.65;100.00
11349;BME280;5729;43.570;27.826;2023-04-05T01:51:51;98484.47;;;1.63;100.00
11349;BME280;5729;43.570;27.826;2023-04-05T01:54:16;98480.09;;;1.59;100.00
11349;BME280;5729;43.570;27.826;2023-04-05T01:56:42;98473.69;;;1.60;100.00
11349;BME280;5729;43.570;27.826;2023-04-05T01:59:07;98444.44;;;1.25;100.00
11349;BME280;5729;43.570;27.826;2023-04-05T02:01:32;98478.50;;;1.40;100.00
11349;BME280;5729;43.570;27.826;2023-04-05T02:03:58;98482.13;;;1.44;100.00
11349;BME280;5729;43.570;27.826;2023-04-05T02:06:23;98480.09;;;1.50;100.00
11349;BME280;5729;43.570;27.826;2023-04-05T02:08:49;98472.41;;;1.31;100.00
11349;BME280;5729;43.570;27.826;2023-04-05T02:11:14;98468.81;;;1.36;100.00
11349;BME280;5729;43.570;27.826;2023-04-05T02:13:40;98477.88;;;1.35;100.00
11349;BME280;5729;43.570;27.826;2023-04-05T02:16:05;98484.91;;;1.39;100.00
11349;BME280;5729;43.570;27.826;2023-04-05T02:18:31;98481.34;;;1.35;100.00
11349;BME280;5729;43.570;27.826;2023-04-05T02:21:04;98488.66;;;1.38;100.00
11349;BME280;5729;43.570;27.826;2023-04-05T02:23:31;98492.09;;;1.39;100.00
11349;BME280;5729;43.570;27.826;2023-04-05T02:25:57;98495.41;;;1.44;100.00
11349;BME280;5729;43.570;27.826;2023-04-05T02:28:23;98493.66;;;1.40;100.00
11349;BME280;5729;43.570;27.826;2023-04-05T02:30:49;98498.06;;;1.44;100.00
11349;BME280;5729;43.570;27.826;2023-04-05T02:33:14;98490.38;;;1.34;100.00
11349;BME280;5729;43.570;27.826;2023-04-05T02:35:39;98504.09;;;1.36;100.00
11349;BME280;5729;43.570;27.826;2023-04-05T02:38:05;98496.50;;;1.52;100.00
11349;BME280;5729;43.570;27.826;2023-04-05T02:40:31;98463.97;;;1.21;100.00
11349;BME280;5729;43.570;27.826;2023-04-05T02:42:57;98501.94;;;1.47;100.00
11349;BME280;5729;43.570;27.826;2023-04-05T02:45:22;98507.69;;;1.23;100.00
11349;BME280;5729;43.570;27.826;2023-04-05T02:47:48;98498.34;;;1.34;100.00
11349;BME280;5729;43.570;27.826;2023-04-05T02:50:13;98498.78;;;1.19;100.00
11349;BME280;5729;43.570;27.826;2023-04-05T02:52:39;98489.84;;;1.15;100.00
11349;BME280;5729;43.570;27.826;2023-04-05T02:55:05;98497.50;;;1.17;100.00
11349;BME280;5729;43.570;27.826;2023-04-05T02:57:31;98502.09;;;1.33;100.00
11349;BME280;5729;43.570;27.826;2023-04-05T02:59:56;98498.34;;;1.34;100.00
11349;BME280;5729;43.570;27.826;2023-04-05T03:02:22;98497.41;;;1.48;100.00
11349;BME280;5729;43.570;27.826;2023-04-05T03:04:47;98499.91;;;1.35;100.00
11349;BME280;5729;43.570;27.826;2023-04-05T03:07:16;98505.53;;;1.42;100.00
11349;BME280;5729;43.570;27.826;2023-04-05T03:09:43;98508.97;;;1.43;100.00
11349;BME280;5729;43.570;27.826;2023-04-05T03:12:10;98514.72;;;1.36;100.00
11349;BME280;5729;43.570;27.826;2023-04-05T03:14:36;98507.41;;;1.42;100.00
11349;BME280;5729;43.570;27.826;2023-04-05T03:17:02;98504.69;;;1.25;100.00
11349;BME280;5729;43.570;27.826;2023-04-05T03:19:28;98512.72;;;1.33;100.00
11349;BME280;5729;43.570;27.826;2023-04-05T03:21:54;98534.25;;;1.23;100.00
11349;BME280;5729;43.570;27.826;2023-04-05T03:24:20;98516.09;;;1.25;100.00
11349;BME280;5729;43.570;27.826;2023-04-05T03:26:46;98521.88;;;1.27;100.00
11349;BME280;5729;43.570;27.826;2023-04-05T03:29:12;98529.25;;;1.30;100.00
11349;BME280;5729;43.570;27.826;2023-04-05T03:31:37;98528.28;;;1.26;100.00
11349;BME280;5729;43.570;27.826;2023-04-05T03:34:03;98538.13;;;1.26;100.00
11349;BME280;5729;43.570;27.826;2023-04-05T03:36:29;98509.84;;;1.13;100.00
11349;BME280;5729;43.570;27.826;2023-04-05T03:39:07;98503.88;;;1.07;100.00
11349;BME280;5729;43.570;27.826;2023-04-05T03:41:34;98538.78;;;1.31;100.00
11349;BME280;5729;43.570;27.826;2023-04-05T03:44:00;98540.00;;;1.25;100.00
11349;BME280;5729;43.570;27.826;2023-04-05T03:46:25;98546.56;;;1.28;100.00
11349;BME280;5729;43.570;27.826;2023-04-05T03:48:51;98547.22;;;1.33;100.00
11349;BME280;5729;43.570;27.826;2023-04-05T03:51:17;98540.81;;;1.34;100.00
11349;BME280;5729;43.570;27.826;2023-04-05T03:53:43;98548.00;;;1.34;100.00
11349;BME280;5729;43.570;27.826;2023-04-05T03:56:09;98559.22;;;1.22;100.00
11349;BME280;5729;43.570;27.826;2023-04-05T03:58:35;98544.81;;;1.15;100.00
11349;BME280;5729;43.570;27.826;2023-04-05T04:01:01;98559.41;;;1.34;100.00
11349;BME280;5729;43.570;27.826;2023-04-05T04:03:26;98560.97;;;1.35;100.00
11349;BME280;5729;43.570;27.826;2023-04-05T04:05:53;98558.16;;;1.32;100.00
11349;BME280;5729;43.570;27.826;2023-04-05T04:08:19;98559.72;;;1.41;100.00
11349;BME280;5729;43.570;27.826;2023-04-05T04:10:45;98545.63;;;1.24;100.00
11349;BME280;5729;43.570;27.826;2023-04-05T04:13:11;98572.22;;;1.41;100.00
11349;BME280;5729;43.570;27.826;2023-04-05T04:15:36;98578.31;;;1.41;100.00
11349;BME280;5729;43.570;27.826;2023-04-05T04:18:01;98576.13;;;1.43;100.00
11349;BME280;5729;43.570;27.826;2023-04-05T04:20:27;98575.97;;;1.40;100.00
11349;BME280;5729;43.570;27.826;2023-04-05T04:22:52;98575.34;;;1.34;100.00
11349;BME280;5729;43.570;27.826;2023-04-05T04:25:18;98586.16;;;1.47;100.00
11349;BME280;5729;43.570;27.826;2023-04-05T04:27:44;98584.09;;;1.35;100.00
11349;BME280;5729;43.570;27.826;2023-04-05T04:30:14;98589.25;;;1.40;100.00
11349;BME280;5729;43.570;27.826;2023-04-05T04:32:41;98584.44;;;1.51;100.00
11349;BME280;5729;43.570;27.826;2023-04-05T04:35:17;98592.41;;;1.51;100.00
11349;BME280;5729;43.570;27.826;2023-04-05T04:37:56;98596.41;;;1.39;100.00
11349;BME280;5729;43.570;27.826;2023-04-05T04:43:07;98554.22;;;1.29;100.00
11349;BME280;5729;43.570;27.826;2023-04-05T04:45:44;98597.38;;;1.43;100.00
11349;BME280;5729;43.570;27.826;2023-04-05T04:48:14;98598.06;;;1.58;100.00
11349;BME280;5729;43.570;27.826;2023-04-05T04:50:44;98588.22;;;1.67;100.00
11349;BME280;5729;43.570;27.826;2023-04-05T04:53:10;98605.41;;;1.69;100.00
11349;BME280;5729;43.570;27.826;2023-04-05T04:55:37;98616.19;;;1.73;100.00
11349;BME280;5729;43.570;27.826;2023-04-05T04:58:02;98611.25;;;1.80;100.00
11349;BME280;5729;43.570;27.826;2023-04-05T05:00:34;98616.03;;;1.69;100.00
11349;BME280;5729;43.570;27.826;2023-04-05T05:03:01;98615.44;;;1.81;100.00
11349;BME280;5729;43.570;27.826;2023-04-05T05:05:27;98605.63;;;1.90;100.00
11349;BME280;5729;43.570;27.826;2023-04-05T05:07:52;98593.41;;;1.80;100.00
11349;BME280;5729;43.570;27.826;2023-04-05T05:10:18;98610.75;;;1.78;100.00
11349;BME280;5729;43.570;27.826;2023-04-05T05:12:44;98602.31;;;1.76;100.00
11349;BME280;5729;43.570;27.826;2023-04-05T05:15:11;98611.06;;;1.85;100.00
11349;BME280;5729;43.570;27.826;2023-04-05T05:17:37;98605.94;;;1.97;100.00
11349;BME280;5729;43.570;27.826;2023-04-05T05:20:04;98611.38;;;1.92;100.00
11349;BME280;5729;43.570;27.826;2023-04-05T05:22:30;98608.72;;;1.92;100.00
11349;BME280;5729;43.570;27.826;2023-04-05T05:24:56;98615.47;;;2.07;100.00
11349;BME280;5729;43.570;27.826;2023-04-05T05:27:21;98601.72;;;2.05;100.00
11349;BME280;5729;43.570;27.826;2023-04-05T05:29:47;98610.16;;;2.07;100.00
11349;BME280;5729;43.570;27.826;2023-04-05T05:32:12;98596.88;;;2.15;100.00
11349;BME280;5729;43.570;27.826;2023-04-05T05:34:42;98598.13;;;2.18;100.00
11349;BME280;5729;43.570;27.826;2023-04-05T05:37:12;98593.94;;;2.26;100.00
11349;BME280;5729;43.570;27.826;2023-04-05T05:39:37;98594.22;;;2.41;100.00
11349;BME280;5729;43.570;27.826;2023-04-05T05:42:03;98595.31;;;2.40;100.00
11349;BME280;5729;43.570;27.826;2023-04-05T05:44:29;98590.16;;;2.44;100.00
11349;BME280;5729;43.570;27.826;2023-04-05T05:46:55;98587.19;;;2.54;100.00
11349;BME280;5729;43.570;27.826;2023-04-05T05:49:20;98591.56;;;2.59;100.00
11349;BME280;5729;43.570;27.826;2023-04-05T05:51:47;98592.78;;;2.61;100.00
11349;BME280;5729;43.570;27.826;2023-04-05T05:54:13;98594.63;;;2.86;100.00
11349;BME280;5729;43.570;27.826;2023-04-05T05:56:38;98588.66;;;2.98;100.00
11349;BME280;5729;43.570;27.826;2023-04-05T05:59:04;98592.44;;;2.88;100.00
11349;BME280;5729;43.570;27.826;2023-04-05T06:01:29;98583.34;;;2.89;100.00
11349;BME280;5729;43.570;27.826;2023-04-05T06:03:55;98591.31;;;2.98;100.00
11349;BME280;5729;43.570;27.826;2023-04-05T06:06:21;98603.91;;;3.18;100.00
11349;BME280;5729;43.570;27.826;2023-04-05T06:08:46;98588.13;;;3.13;100.00
11349;BME280;5729;43.570;27.826;2023-04-05T06:11:18;98587.38;;;2.96;100.00
11349;BME280;5729;43.570;27.826;2023-04-05T06:13:45;98605.09;;;3.00;100.00
11349;BME280;5729;43.570;27.826;2023-04-05T06:16:11;98588.38;;;2.91;100.00
11349;BME280;5729;43.570;27.826;2023-04-05T06:18:36;98590.06;;;2.96;100.00
11349;BME280;5729;43.570;27.826;2023-04-05T06:21:02;98587.81;;;3.06;100.00
11349;BME280;5729;43.570;27.826;2023-04-05T06:23:27;98595.81;;;3.15;100.00
11349;BME280;5729;43.570;27.826;2023-04-05T06:25:53;98592.59;;;3.30;100.00
11349;BME280;5729;43.570;27.826;2023-04-05T06:28:18;98598.41;;;3.32;100.00
11349;BME280;5729;43.570;27.826;2023-04-05T06:30:44;98599.50;;;3.31;100.00
11349;BME280;5729;43.570;27.826;2023-04-05T06:33:09;98605.06;;;3.47;100.00
11349;BME280;5729;43.570;27.826;2023-04-05T06:35:36;98608.91;;;3.28;100.00
11349;BME280;5729;43.570;27.826;2023-04-05T06:38:02;98595.47;;;3.16;100.00
11349;BME280;5729;43.570;27.826;2023-04-05T06:40:27;98621.06;;;3.47;100.00
11349;BME280;5729;43.570;27.826;2023-04-05T06:42:53;98622.94;;;3.46;100.00
11349;BME280;5729;43.570;27.826;2023-04-05T06:45:18;98631.53;;;3.52;100.00
11349;BME280;5729;43.570;27.826;2023-04-05T06:47:44;98635.13;;;3.56;100.00
11349;BME280;5729;43.570;27.826;2023-04-05T06:50:10;98639.28;;;3.36;100.00
11349;BME280;5729;43.570;27.826;2023-04-05T06:52:36;98634.84;;;3.40;100.00
11349;BME280;5729;43.570;27.826;2023-04-05T06:55:02;98640.91;;;3.58;100.00
11349;BME280;5729;43.570;27.826;2023-04-05T06:57:29;98638.47;;;3.74;100.00
11349;BME280;5729;43.570;27.826;2023-04-05T06:59:54;98637.53;;;3.78;100.00
11349;BME280;5729;43.570;27.826;2023-04-05T07:02:20;98640.31;;;3.82;100.00
11349;BME280;5729;43.570;27.826;2023-04-05T07:04:46;98639.09;;;3.79;100.00
11349;BME280;5729;43.570;27.826;2023-04-05T07:07:12;98636.22;;;3.84;100.00
11349;BME280;5729;43.570;27.826;2023-04-05T07:09:38;98643.53;;;3.96;100.00
11349;BME280;5729;43.570;27.826;2023-04-05T07:12:05;98641.19;;;3.94;100.00
11349;BME280;5729;43.570;27.826;2023-04-05T07:14:35;98627.66;;;3.99;100.00
11349;BME280;5729;43.570;27.826;2023-04-05T07:17:03;98636.22;;;4.14;100.00
11349;BME280;5729;43.570;27.826;2023-04-05T07:19:30;98633.41;;;4.31;100.00
11349;BME280;5729;43.570;27.826;2023-04-05T07:21:55;98630.63;;;4.27;100.00
11349;BME280;5729;43.570;27.826;2023-04-05T07:24:21;98634.25;;;4.44;100.00
11349;BME280;5729;43.570;27.826;2023-04-05T07:26:47;98648.50;;;4.48;100.00
11349;BME280;5729;43.570;27.826;2023-04-05T07:29:12;98642.66;;;4.54;100.00
11349;BME280;5729;43.570;27.826;2023-04-05T07:31:39;98638.38;;;4.62;100.00
11349;BME280;5729;43.570;27.826;2023-04-05T07:34:05;98649.88;;;4.87;100.00
11349;BME280;5729;43.570;27.826;2023-04-05T07:36:31;98610.09;;;4.61;100.00
11349;BME280;5729;43.570;27.826;2023-04-05T07:38:57;98619.69;;;4.74;100.00
11349;BME280;5729;43.570;27.826;2023-04-05T07:41:27;98639.22;;;4.87;100.00
11349;BME280;5729;43.570;27.826;2023-04-05T07:43:59;98636.75;;;4.82;100.00
11349;BME280;5729;43.570;27.826;2023-04-05T07:46:25;98648.09;;;5.11;100.00
11349;BME280;5729;43.570;27.826;2023-04-05T07:48:51;98628.19;;;5.33;100.00
11349;BME280;5729;43.570;27.826;2023-04-05T07:51:18;98632.09;;;5.24;100.00
11349;BME280;5729;43.570;27.826;2023-04-05T07:53:44;98615.31;;;5.47;100.00
11349;BME280;5729;43.570;27.826;2023-04-05T07:56:10;98632.91;;;5.61;100.00
11349;BME280;5729;43.570;27.826;2023-04-05T07:58:37;98633.69;;;5.61;100.00
11349;BME280;5729;43.570;27.826;2023-04-05T08:01:06;98604.59;;;5.35;100.00
11349;BME280;5729;43.570;27.826;2023-04-05T08:03:32;98635.78;;;5.68;100.00
11349;BME280;5729;43.570;27.826;2023-04-05T08:06:14;98617.75;;;5.40;100.00
11349;BME280;5729;43.570;27.826;2023-04-05T08:08:44;98633.38;;;5.75;100.00
11349;BME280;5729;43.570;27.826;2023-04-05T08:11:09;98646.63;;;5.96;100.00
11349;BME280;5729;43.570;27.826;2023-04-05T08:13:35;98639.69;;;6.19;100.00
11349;BME280;5729;43.570;27.826;2023-04-05T08:16:03;98638.53;;;6.32;100.00
11349;BME280;5729;43.570;27.826;2023-04-05T08:18:28;98635.22;;;6.63;100.00
11349;BME280;5729;43.570;27.826;2023-04-05T08:20:54;98631.94;;;6.70;100.00
11349;BME280;5729;43.570;27.826;2023-04-05T08:23:20;98638.59;;;7.04;100.00
11349;BME280;5729;43.570;27.826;2023-04-05T08:25:46;98630.19;;;7.33;100.00
11349;BME280;5729;43.570;27.826;2023-04-05T08:28:11;98621.38;;;7.99;100.00
11349;BME280;5729;43.570;27.826;2023-04-05T08:30:38;98631.84;;;8.39;100.00
11349;BME280;5729;43.570;27.826;2023-04-05T08:33:03;98628.31;;;8.73;100.00
11349;BME280;5729;43.570;27.826;2023-04-05T08:35:29;98625.91;;;8.88;100.00
11349;BME280;5729;43.570;27.826;2023-04-05T08:37:55;98641.66;;;9.08;100.00
11349;BME280;5729;43.570;27.826;2023-04-05T08:40:21;98636.16;;;9.01;100.00
11349;BME280;5729;43.570;27.826;2023-04-05T08:43:11;98642.91;;;9.37;100.00
11349;BME280;5729;43.570;27.826;2023-04-05T08:45:49;98623.06;;;10.47;100.00
11349;BME280;5729;43.570;27.826;2023-04-05T08:48:17;98636.41;;;10.70;100.00
11349;BME280;5729;43.570;27.826;2023-04-05T08:50:52;98633.28;;;11.86;100.00
11349;BME280;5729;43.570;27.826;2023-04-05T08:53:18;98638.38;;;11.95;100.00
11349;BME280;5729;43.570;27.826;2023-04-05T08:55:49;98639.06;;;12.54;100.00
11349;BME280;5729;43.570;27.826;2023-04-05T08:58:17;98639.31;;;13.18;95.92
11349;BME280;5729;43.570;27.826;2023-04-05T09:00:45;98638.56;;;13.77;80.19
11349;BME280;5729;43.570;27.826;2023-04-05T09:03:15;98649.81;;;13.69;83.64
11349;BME280;5729;43.570;27.826;2023-04-05T09:05:47;98643.88;;;12.92;82.04
11349;BME280;5729;43.570;27.826;2023-04-05T09:08:13;98649.38;;;12.30;90.26
11349;BME280;5729;43.570;27.826;2023-04-05T09:10:39;98640.03;;;13.00;86.64
11349;BME280;5729;43.570;27.826;2023-04-05T09:13:05;98634.94;;;12.78;84.57
11349;BME280;5729;43.570;27.826;2023-04-05T09:15:30;98641.69;;;13.58;85.14
11349;BME280;5729;43.570;27.826;2023-04-05T09:17:56;98630.81;;;14.04;83.58
11349;BME280;5729;43.570;27.826;2023-04-05T09:20:22;98634.28;;;15.17;82.19
11349;BME280;5729;43.570;27.826;2023-04-05T09:22:48;98629.19;;;16.90;61.46
11349;BME280;5729;43.570;27.826;2023-04-05T09:25:37;98636.84;;;15.38;58.95
11349;BME280;5729;43.570;27.826;2023-04-05T09:28:09;98640.28;;;16.73;56.15
11349;BME280;5729;43.570;27.826;2023-04-05T09:30:35;98641.16;;;17.77;53.15
11349;BME280;5729;43.570;27.826;2023-04-05T09:33:03;98637.56;;;19.06;49.38
11349;BME280;5729;43.570;27.826;2023-04-05T09:35:30;98629.34;;;19.06;47.03
11349;BME280;5729;43.570;27.826;2023-04-05T09:37:58;98628.00;;;16.57;49.74
11349;BME280;5729;43.570;27.826;2023-04-05T09:40:43;98650.81;;;15.44;54.74
11349;BME280;5729;43.570;27.826;2023-04-05T09:43:09;98648.00;;;14.92;62.00
11349;BME280;5729;43.570;27.826;2023-04-05T09:45:40;98653.56;;;14.57;61.08
11349;BME280;5729;43.570;27.826;2023-04-05T09:48:06;98623.47;;;14.05;64.75
11349;BME280;5729;43.570;27.826;2023-04-05T09:50:32;98644.38;;;14.04;68.62
11349;BME280;5729;43.570;27.826;2023-04-05T09:53:11;98650.03;;;12.89;80.71
11349;BME280;5729;43.570;27.826;2023-04-05T09:55:40;98653.25;;;12.33;82.24
11349;BME280;5729;43.570;27.826;2023-04-05T09:58:19;98649.28;;;12.13;90.38
11349;BME280;5729;43.570;27.826;2023-04-05T10:00:49;98646.03;;;11.89;90.21
11349;BME280;5729;43.570;27.826;2023-04-05T10:03:19;98644.06;;;11.83;97.18
11349;BME280;5729;43.570;27.826;2023-04-05T10:05:45;98645.41;;;11.59;99.35
11349;BME280;5729;43.570;27.826;2023-04-05T10:08:13;98634.84;;;11.43;99.50
11349;BME280;5729;43.570;27.826;2023-04-05T10:10:45;98647.38;;;12.13;100.00
11349;BME280;5729;43.570;27.826;2023-04-05T10:13:11;98651.97;;;12.06;94.37
11349;BME280;5729;43.570;27.826;2023-04-05T10:15:37;98656.13;;;11.52;97.83
11349;BME280;5729;43.570;27.826;2023-04-05T10:18:09;98646.19;;;10.82;100.00
11349;BME280;5729;43.570;27.826;2023-04-05T10:20:38;98655.28;;;10.40;100.00
11349;BME280;5729;43.570;27.826;2023-04-05T10:23:12;98658.94;;;10.25;100.00
11349;BME280;5729;43.570;27.826;2023-04-05T10:28:33;98669.94;;;9.90;100.00
11349;BME280;5729;43.570;27.826;2023-04-05T10:31:11;98655.94;;;10.07;100.00
11349;BME280;5729;43.570;27.826;2023-04-05T10:33:46;98660.06;;;10.54;100.00
11349;BME280;5729;43.570;27.826;2023-04-05T10:36:21;98683.13;;;10.51;100.00
11349;BME280;5729;43.570;27.826;2023-04-05T10:41:17;98667.78;;;10.85;100.00
11349;BME280;5729;43.570;27.826;2023-04-05T10:43:43;98671.16;;;10.79;100.00
11349;BME280;5729;43.570;27.826;2023-04-05T10:46:10;98670.19;;;10.94;100.00
11349;BME280;5729;43.570;27.826;2023-04-05T10:48:44;98644.97;;;10.46;100.00
11349;BME280;5729;43.570;27.826;2023-04-05T10:51:14;98668.34;;;10.68;100.00
11349;BME280;5729;43.570;27.826;2023-04-05T10:53:39;98682.81;;;10.86;100.00
11349;BME280;5729;43.570;27.826;2023-04-05T10:56:06;98686.97;;;10.80;100.00
11349;BME280;5729;43.570;27.826;2023-04-05T10:58:33;98674.13;;;10.40;100.00
11349;BME280;5729;43.570;27.826;2023-04-05T11:01:00;98678.94;;;10.24;100.00
11349;BME280;5729;43.570;27.826;2023-04-05T11:06:20;98686.81;;;10.13;100.00
11349;BME280;5729;43.570;27.826;2023-04-05T11:08:47;98689.44;;;10.10;100.00
11349;BME280;5729;43.570;27.826;2023-04-05T11:11:15;98677.16;;;9.86;100.00
11349;BME280;5729;43.570;27.826;2023-04-05T11:13:52;98689.75;;;9.56;100.00
11349;BME280;5729;43.570;27.826;2023-04-05T11:16:19;98697.69;;;9.71;100.00
11349;BME280;5729;43.570;27.826;2023-04-05T11:18:50;98707.66;;;9.48;100.00
11349;BME280;5729;43.570;27.826;2023-04-05T11:21:20;98710.09;;;9.34;100.00
11349;BME280;5729;43.570;27.826;2023-04-05T11:26:54;98706.66;;;9.79;100.00
11349;BME280;5729;43.570;27.826;2023-04-05T11:29:49;98711.38;;;9.63;100.00
11349;BME280;5729;43.570;27.826;2023-04-05T11:32:15;98708.81;;;9.28;100.00
11349;BME280;5729;43.570;27.826;2023-04-05T11:34:42;98703.78;;;9.45;100.00
11349;BME280;5729;43.570;27.826;2023-04-05T11:37:08;98704.00;;;9.37;100.00
11349;BME280;5729;43.570;27.826;2023-04-05T11:39:34;98702.88;;;9.38;100.00
11349;BME280;5729;43.570;27.826;2023-04-05T11:42:03;98709.34;;;9.14;100.00
11349;BME280;5729;43.570;27.826;2023-04-05T11:47:03;98710.63;;;9.01;100.00
11349;BME280;5729;43.570;27.826;2023-04-05T11:49:29;98705.28;;;8.47;100.00
11349;BME280;5729;43.570;27.826;2023-04-05T11:51:55;98706.88;;;8.32;100.00
11349;BME280;5729;43.570;27.826;2023-04-05T11:54:30;98701.69;;;8.23;100.00
11349;BME280;5729;43.570;27.826;2023-04-05T11:56:56;98711.75;;;8.11;100.00
11349;BME280;5729;43.570;27.826;2023-04-05T11:59:34;98710.38;;;8.01;100.00
11349;BME280;5729;43.570;27.826;2023-04-05T12:02:01;98712.69;;;7.71;100.00
11349;BME280;5729;43.570;27.826;2023-04-05T12:04:28;98712.19;;;7.65;100.00
11349;BME280;5729;43.570;27.826;2023-04-05T12:07:16;98717.28;;;7.86;100.00
11349;BME280;5729;43.570;27.826;2023-04-05T12:10:08;98720.41;;;7.73;100.00
11349;BME280;5729;43.570;27.826;2023-04-05T12:12:37;98718.84;;;7.56;100.00
11349;BME280;5729;43.570;27.826;2023-04-05T12:15:05;98717.63;;;7.69;100.00
11349;BME280;5729;43.570;27.826;2023-04-05T12:20:05;98702.25;;;7.22;100.00
11349;BME280;5729;43.570;27.826;2023-04-05T12:22:31;98693.47;;;7.38;100.00
11349;BME280;5729;43.570;27.826;2023-04-05T12:24:56;98701.13;;;7.67;100.00
11349;BME280;5729;43.570;27.826;2023-04-05T12:27:22;98704.91;;;7.82;100.00
11349;BME280;5729;43.570;27.826;2023-04-05T12:30:08;98704.47;;;7.80;100.00
11349;BME280;5729;43.570;27.826;2023-04-05T12:32:36;98717.00;;;7.60;100.00
11349;BME280;5729;43.570;27.826;2023-04-05T12:35:05;98711.03;;;7.51;100.00
11349;BME280;5729;43.570;27.826;2023-04-05T12:37:33;98718.53;;;7.45;100.00
11349;BME280;5729;43.570;27.826;2023-04-05T12:40:02;98716.75;;;7.49;100.00
11349;BME280;5729;43.570;27.826;2023-04-05T12:42:38;98722.44;;;7.32;100.00
11349;BME280;5729;43.570;27.826;2023-04-05T12:45:04;98707.72;;;7.26;100.00
11349;BME280;5729;43.570;27.826;2023-04-05T12:47:34;98723.22;;;7.48;100.00
11349;BME280;5729;43.570;27.826;2023-04-05T12:50:29;98716.66;;;7.46;100.00
11349;BME280;5729;43.570;27.826;2023-04-05T12:53:00;98716.19;;;7.28;100.00
11349;BME280;5729;43.570;27.826;2023-04-05T12:55:27;98707.25;;;7.52;100.00
11349;BME280;5729;43.570;27.826;2023-04-05T12:57:55;98708.38;;;7.67;100.00
11349;BME280;5729;43.570;27.826;2023-04-05T13:00:24;98708.91;;;7.72;100.00
11349;BME280;5729;43.570;27.826;2023-04-05T13:02:51;98704.72;;;7.59;100.00
11349;BME280;5729;43.570;27.826;2023-04-05T13:05:21;98704.41;;;7.76;100.00
11349;BME280;5729;43.570;27.826;2023-04-05T13:07:47;98710.50;;;7.45;100.00
11349;BME280;5729;43.570;27.826;2023-04-05T13:10:13;98710.53;;;7.61;100.00
11349;BME280;5729;43.570;27.826;2023-04-05T13:12:38;98694.97;;;7.51;100.00
11349;BME280;5729;43.570;27.826;2023-04-05T13:15:04;98707.47;;;7.47;100.00
11349;BME280;5729;43.570;27.826;2023-04-05T13:17:30;98702.81;;;7.44;100.00
11349;BME280;5729;43.570;27.826;2023-04-05T13:19:55;98709.53;;;7.22;100.00
11349;BME280;5729;43.570;27.826;2023-04-05T13:22:21;98701.13;;;7.23;100.00
11349;BME280;5729;43.570;27.826;2023-04-05T13:24:47;98710.50;;;7.45;100.00
11349;BME280;5729;43.570;27.826;2023-04-05T13:27:12;98705.84;;;7.42;100.00
11349;BME280;5729;43.570;27.826;2023-04-05T13:29:38;98705.44;;;7.56;100.00
11349;BME280;5729;43.570;27.826;2023-04-05T13:32:03;98710.44;;;7.42;100.00
11349;BME280;5729;43.570;27.826;2023-04-05T13:34:29;98709.03;;;7.48;100.00
11349;BME280;5729;43.570;27.826;2023-04-05T13:36:55;98714.94;;;7.53;100.00
11349;BME280;5729;43.570;27.826;2023-04-05T13:39:21;98718.69;;;7.64;100.00